Ludowici, Georgia
Current Conditions -  °F | °C
As of 6:15 AM on Wednesday 26 Nov 2014 (Local Time) from KJES Reporting Station
Drizzle Drizzle  
Wind Chill: 52°   Ceiling: 800
Heat Index: 52°   Visibility: 10mi
Dew Point: 50°   Wind: 7mph
Humidity: 94%   Direction: 350°N
Pressure: 29.98"   Gusts: NA
Location:  31.71°N, 81.74°W
Report Text: KJES 261115Z AUTO 35006KT 10SM DZ BKN008 BKN060 OVC065 11/10 A2998 RMK AO2
Loading
Personal Weather Stations






























Interactive Weather Map New forecast layout! Learn more

10-Day Weather Forecast

Advertisements
Track Severe Weather on mobile